sensor_id;sensor_type;location;lat;lon;timestamp;pressure;altitude;pressure_sealevel;temperature;humidity
20696;BME280;10507;52.754;13.040;2022-11-20T00:01:20;100542.97;;;0.68;100.00
20696;BME280;10507;52.754;13.040;2022-11-20T00:03:50;100511.56;;;0.56;100.00
20696;BME280;10507;52.754;13.040;2022-11-20T00:06:19;100550.00;;;0.65;100.00
20696;BME280;10507;52.754;13.040;2022-11-20T00:08:48;100517.69;;;0.58;100.00
20696;BME280;10507;52.754;13.040;2022-11-20T00:11:20;100556.22;;;0.59;100.00
20696;BME280;10507;52.754;13.040;2022-11-20T00:13:50;100565.78;;;0.65;100.00
20696;BME280;10507;52.754;13.040;2022-11-20T00:16:19;100532.63;;;0.54;100.00
20696;BME280;10507;52.754;13.040;2022-11-20T00:18:48;100560.56;;;0.60;100.00
20696;BME280;10507;52.754;13.040;2022-11-20T00:21:18;100551.84;;;0.58;100.00
20696;BME280;10507;52.754;13.040;2022-11-20T00:23:49;100518.66;;;0.49;100.00
20696;BME280;10507;52.754;13.040;2022-11-20T00:26:23;100579.84;;;0.59;100.00
20696;BME280;10507;52.754;13.040;2022-11-20T00:28:54;100611.28;;;0.68;100.00
20696;BME280;10507;52.754;13.040;2022-11-20T00:31:22;100558.84;;;0.59;100.00
20696;BME280;10507;52.754;13.040;2022-11-20T00:33:51;100535.28;;;0.51;100.00
20696;BME280;10507;52.754;13.040;2022-11-20T00:36:20;100517.88;;;0.41;100.00
20696;BME280;10507;52.754;13.040;2022-11-20T00:38:51;100559.81;;;0.49;100.00
20696;BME280;10507;52.754;13.040;2022-11-20T00:41:20;100536.22;;;0.46;100.00
20696;BME280;10507;52.754;13.040;2022-11-20T00:43:51;100524.84;;;0.45;100.00
20696;BME280;10507;52.754;13.040;2022-11-20T00:46:21;100508.31;;;0.35;100.00
20696;BME280;10507;52.754;13.040;2022-11-20T00:48:49;100571.22;;;0.48;100.00
20696;BME280;10507;52.754;13.040;2022-11-20T00:51:19;100578.19;;;0.52;100.00
20696;BME280;10507;52.754;13.040;2022-11-20T00:53:47;100524.00;;;0.41;100.00
20696;BME280;10507;52.754;13.040;2022-11-20T00:56:17;100525.72;;;0.43;100.00
20696;BME280;10507;52.754;13.040;2022-11-20T00:58:46;100562.44;;;0.52;100.00
20696;BME280;10507;52.754;13.040;2022-11-20T01:01:17;100566.72;;;0.57;100.00
20696;BME280;10507;52.754;13.040;2022-11-20T01:03:48;100524.81;;;0.50;100.00
20696;BME280;10507;52.754;13.040;2022-11-20T01:06:26;100502.06;;;0.46;100.00
20696;BME280;10507;52.754;13.040;2022-11-20T01:08:56;100488.94;;;0.46;100.00
20696;BME280;10507;52.754;13.040;2022-11-20T01:11:26;100460.22;;;0.30;100.00
20696;BME280;10507;52.754;13.040;2022-11-20T01:13:55;100490.78;;;0.37;100.00
20696;BME280;10507;52.754;13.040;2022-11-20T01:16:26;100489.91;;;0.37;100.00
20696;BME280;10507;52.754;13.040;2022-11-20T01:18:56;100463.66;;;0.35;100.00
20696;BME280;10507;52.754;13.040;2022-11-20T01:21:26;100482.88;;;0.40;100.00
20696;BME280;10507;52.754;13.040;2022-11-20T01:23:54;100495.91;;;0.48;100.00
20696;BME280;10507;52.754;13.040;2022-11-20T01:26:24;100460.97;;;0.41;100.00
20696;BME280;10507;52.754;13.040;2022-11-20T01:28:53;100458.34;;;0.43;100.00
20696;BME280;10507;52.754;13.040;2022-11-20T01:31:23;100460.97;;;0.43;100.00
20696;BME280;10507;52.754;13.040;2022-11-20T01:33:55;100483.69;;;0.46;100.00
20696;BME280;10507;52.754;13.040;2022-11-20T01:36:32;100439.97;;;0.41;100.00
20696;BME280;10507;52.754;13.040;2022-11-20T01:39:05;100458.34;;;0.43;100.00
20696;BME280;10507;52.754;13.040;2022-11-20T01:41:33;100420.78;;;0.33;100.00
20696;BME280;10507;52.754;13.040;2022-11-20T01:44:21;100428.66;;;0.33;100.00
20696;BME280;10507;52.754;13.040;2022-11-20T01:46:55;100446.19;;;0.34;100.00
20696;BME280;10507;52.754;13.040;2022-11-20T01:49:32;100436.59;;;0.32;100.00
20696;BME280;10507;52.754;13.040;2022-11-20T01:52:05;100474.16;;;0.38;100.00
20696;BME280;10507;52.754;13.040;2022-11-20T01:54:38;100431.28;;;0.35;100.00
20696;BME280;10507;52.754;13.040;2022-11-20T01:57:10;100399.91;;;0.26;100.00
20696;BME280;10507;52.754;13.040;2022-11-20T01:59:43;100440.88;;;0.36;100.00
20696;BME280;10507;52.754;13.040;2022-11-20T02:02:12;100410.28;;;0.33;100.00
20696;BME280;10507;52.754;13.040;2022-11-20T02:04:41;100417.28;;;0.34;100.00
20696;BME280;10507;52.754;13.040;2022-11-20T02:07:09;100402.41;;;0.33;100.00
20696;BME280;10507;52.754;13.040;2022-11-20T02:09:38;100433.00;;;0.40;100.00
20696;BME280;10507;52.754;13.040;2022-11-20T02:12:06;100424.22;;;0.41;100.00
20696;BME280;10507;52.754;13.040;2022-11-20T02:14:58;100354.34;;;0.28;100.00
20696;BME280;10507;52.754;13.040;2022-11-20T02:17:25;100383.16;;;0.33;100.00
20696;BME280;10507;52.754;13.040;2022-11-20T02:19:54;100384.13;;;0.27;100.00
20696;BME280;10507;52.754;13.040;2022-11-20T02:22:26;100391.97;;;0.29;100.00
20696;BME280;10507;52.754;13.040;2022-11-20T02:24:59;100424.25;;;0.38;100.00
20696;BME280;10507;52.754;13.040;2022-11-20T02:27:28;100369.25;;;0.26;100.00
20696;BME280;10507;52.754;13.040;2022-11-20T02:29:59;100321.25;;;0.15;100.00
20696;BME280;10507;52.754;13.040;2022-11-20T02:32:30;100335.25;;;0.15;100.00
20696;BME280;10507;52.754;13.040;2022-11-20T02:35:06;100331.03;;;0.05;100.00
20696;BME280;10507;52.754;13.040;2022-11-20T02:37:36;100322.28;;;0.03;100.00
20696;BME280;10507;52.754;13.040;2022-11-20T02:40:09;100364.22;;;0.09;100.00
20696;BME280;10507;52.754;13.040;2022-11-20T02:42:37;100300.50;;;-0.04;100.00
20696;BME280;10507;52.754;13.040;2022-11-20T02:45:06;100338.09;;;0.00;100.00
20696;BME280;10507;52.754;13.040;2022-11-20T02:47:34;100325.84;;;-0.01;100.00
20696;BME280;10507;52.754;13.040;2022-11-20T02:50:02;100322.41;;;-0.08;100.00
20696;BME280;10507;52.754;13.040;2022-11-20T02:52:31;100396.56;;;0.10;100.00
20696;BME280;10507;52.754;13.040;2022-11-20T02:54:59;100431.47;;;0.18;100.00
20696;BME280;10507;52.754;13.040;2022-11-20T02:57:28;100398.25;;;0.17;100.00
20696;BME280;10507;52.754;13.040;2022-11-20T02:59:56;100382.59;;;0.08;100.00
20696;BME280;10507;52.754;13.040;2022-11-20T03:02:24;100343.34;;;-0.02;100.00
20696;BME280;10507;52.754;13.040;2022-11-20T03:04:52;100387.00;;;0.04;100.00
20696;BME280;10507;52.754;13.040;2022-11-20T03:07:20;100403.56;;;0.11;100.00
20696;BME280;10507;52.754;13.040;2022-11-20T03:09:49;100375.59;;;0.07;100.00
20696;BME280;10507;52.754;13.040;2022-11-20T03:12:19;100387.84;;;0.08;100.00
20696;BME280;10507;52.754;13.040;2022-11-20T03:14:50;100417.53;;;0.14;100.00
20696;BME280;10507;52.754;13.040;2022-11-20T03:17:19;100416.59;;;0.18;100.00
20696;BME280;10507;52.754;13.040;2022-11-20T03:19:47;100451.50;;;0.28;100.00
20696;BME280;10507;52.754;13.040;2022-11-20T03:22:14;100433.97;;;0.30;100.00
20696;BME280;10507;52.754;13.040;2022-11-20T03:24:42;100401.66;;;0.25;100.00
20696;BME280;10507;52.754;13.040;2022-11-20T03:27:11;100371.06;;;0.21;100.00
20696;BME280;10507;52.754;13.040;2022-11-20T03:29:38;100370.28;;;0.14;100.00
20696;BME280;10507;52.754;13.040;2022-11-20T03:32:07;100346.72;;;0.10;100.00
20696;BME280;10507;52.754;13.040;2022-11-20T03:34:35;100360.75;;;0.07;100.00
20696;BME280;10507;52.754;13.040;2022-11-20T03:37:03;100396.53;;;0.16;100.00
20696;BME280;10507;52.754;13.040;2022-11-20T03:39:31;100349.34;;;0.07;100.00
20696;BME280;10507;52.754;13.040;2022-11-20T03:41:59;100364.22;;;0.09;100.00
20696;BME280;10507;52.754;13.040;2022-11-20T03:44:27;100374.66;;;0.12;100.00
20696;BME280;10507;52.754;13.040;2022-11-20T03:46:55;100330.19;;;0.02;100.00
20696;BME280;10507;52.754;13.040;2022-11-20T03:49:24;100347.56;;;0.09;100.00
20696;BME280;10507;52.754;13.040;2022-11-20T03:51:52;100315.34;;;-0.01;100.00
20696;BME280;10507;52.754;13.040;2022-11-20T03:54:20;100358.19;;;0.03;100.00
20696;BME280;10507;52.754;13.040;2022-11-20T03:56:48;100405.31;;;0.10;100.00
20696;BME280;10507;52.754;13.040;2022-11-20T03:59:16;100413.09;;;0.18;100.00
20696;BME280;10507;52.754;13.040;2022-11-20T04:01:44;100405.16;;;0.24;100.00
20696;BME280;10507;52.754;13.040;2022-11-20T04:04:15;100350.97;;;0.18;100.00
20696;BME280;10507;52.754;13.040;2022-11-20T04:06:44;100320.44;;;0.11;100.00
20696;BME280;10507;52.754;13.040;2022-11-20T04:09:12;100304.78;;;0.05;100.00
20696;BME280;10507;52.754;13.040;2022-11-20T04:11:40;100290.81;;;0.03;100.00
20696;BME280;10507;52.754;13.040;2022-11-20T04:14:13;100328.34;;;0.07;100.00
20696;BME280;10507;52.754;13.040;2022-11-20T04:16:42;100283.00;;;-0.02;100.00
20696;BME280;10507;52.754;13.040;2022-11-20T04:19:11;100287.38;;;-0.02;100.00
20696;BME280;10507;52.754;13.040;2022-11-20T04:21:40;100297.84;;;-0.01;100.00
20696;BME280;10507;52.754;13.040;2022-11-20T04:24:09;100301.38;;;-0.03;100.00
20696;BME280;10507;52.754;13.040;2022-11-20T04:26:37;100283.06;;;-0.08;100.00
20696;BME280;10507;52.754;13.040;2022-11-20T04:29:05;100275.22;;;-0.11;100.00
20696;BME280;10507;52.754;13.040;2022-11-20T04:31:35;100297.09;;;-0.12;100.00
20696;BME280;10507;52.754;13.040;2022-11-20T04:34:07;100342.50;;;-0.04;100.00
20696;BME280;10507;52.754;13.040;2022-11-20T04:36:35;100348.59;;;0.00;100.00
20696;BME280;10507;52.754;13.040;2022-11-20T04:39:05;100343.41;;;-0.06;100.00
20696;BME280;10507;52.754;13.040;2022-11-20T04:41:36;100378.22;;;0.07;100.00
20696;BME280;10507;52.754;13.040;2022-11-20T04:44:05;100342.44;;;0.03;100.00
20696;BME280;10507;52.754;13.040;2022-11-20T04:46:35;100346.75;;;0.05;100.00
20696;BME280;10507;52.754;13.040;2022-11-20T04:49:04;100334.56;;;0.03;100.00
20696;BME280;10507;52.754;13.040;2022-11-20T04:51:32;100299.66;;;-0.04;100.00
20696;BME280;10507;52.754;13.040;2022-11-20T04:54:00;100302.31;;;-0.09;100.00
20696;BME280;10507;52.754;13.040;2022-11-20T04:56:28;100312.84;;;-0.12;100.00
20696;BME280;10507;52.754;13.040;2022-11-20T04:59:01;100298.06;;;-0.21;100.00
20696;BME280;10507;52.754;13.040;2022-11-20T05:01:29;100324.28;;;-0.17;100.00
20696;BME280;10507;52.754;13.040;2022-11-20T05:03:57;100305.06;;;-0.18;100.00
20696;BME280;10507;52.754;13.040;2022-11-20T05:06:25;100314.69;;;-0.20;100.00
20696;BME280;10507;52.754;13.040;2022-11-20T05:08:53;100319.06;;;-0.21;100.00
20696;BME280;10507;52.754;13.040;2022-11-20T05:11:21;100299.03;;;-0.25;100.00
20696;BME280;10507;52.754;13.040;2022-11-20T05:13:50;100361.84;;;-0.14;100.00
20696;BME280;10507;52.754;13.040;2022-11-20T05:16:22;100345.28;;;-0.17;100.00
20696;BME280;10507;52.754;13.040;2022-11-20T05:18:51;100318.19;;;-0.21;100.00
20696;BME280;10507;52.754;13.040;2022-11-20T05:21:19;100320.00;;;-0.25;100.00
20696;BME280;10507;52.754;13.040;2022-11-20T05:23:47;100309.50;;;-0.26;100.00
20696;BME280;10507;52.754;13.040;2022-11-20T05:26:18;100295.59;;;-0.31;100.00
20696;BME280;10507;52.754;13.040;2022-11-20T05:28:47;100321.81;;;-0.31;100.00
20696;BME280;10507;52.754;13.040;2022-11-20T05:31:16;100368.94;;;-0.22;100.00
20696;BME280;10507;52.754;13.040;2022-11-20T05:33:55;100361.94;;;-0.23;100.00
20696;BME280;10507;52.754;13.040;2022-11-20T05:36:23;100357.53;;;-0.21;100.00
20696;BME280;10507;52.754;13.040;2022-11-20T05:38:51;100346.25;;;-0.26;100.00
20696;BME280;10507;52.754;13.040;2022-11-20T05:41:26;100377.66;;;-0.20;100.00
20696;BME280;10507;52.754;13.040;2022-11-20T05:43:55;100360.22;;;-0.24;100.00
20696;BME280;10507;52.754;13.040;2022-11-20T05:46:24;100378.47;;;-0.16;100.00
20696;BME280;10507;52.754;13.040;2022-11-20T05:48:57;100377.63;;;-0.17;100.00
20696;BME280;10507;52.754;13.040;2022-11-20T05:51:26;100360.16;;;-0.18;100.00
20696;BME280;10507;52.754;13.040;2022-11-20T05:53:56;100371.47;;;-0.16;100.00
20696;BME280;10507;52.754;13.040;2022-11-20T05:56:24;100385.44;;;-0.12;100.00
20696;BME280;10507;52.754;13.040;2022-11-20T05:58:51;100395.03;;;-0.07;100.00
20696;BME280;10507;52.754;13.040;2022-11-20T06:01:21;100340.00;;;-0.16;100.00
20696;BME280;10507;52.754;13.040;2022-11-20T06:03:49;100390.69;;;-0.11;100.00
20696;BME280;10507;52.754;13.040;2022-11-20T06:06:19;100374.88;;;-0.06;100.00
20696;BME280;10507;52.754;13.040;2022-11-20T06:08:47;100384.47;;;-0.04;100.00
20696;BME280;10507;52.754;13.040;2022-11-20T06:11:16;100323.44;;;-0.18;100.00
20696;BME280;10507;52.754;13.040;2022-11-20T06:13:44;100327.78;;;-0.18;100.00
20696;BME280;10507;52.754;13.040;2022-11-20T06:16:14;100340.03;;;-0.19;100.00
20696;BME280;10507;52.754;13.040;2022-11-20T06:18:42;100395.03;;;-0.11;100.00
20696;BME280;10507;52.754;13.040;2022-11-20T06:21:11;100402.03;;;-0.09;100.00
20696;BME280;10507;52.754;13.040;2022-11-20T06:23:42;100391.53;;;-0.09;100.00
20696;BME280;10507;52.754;13.040;2022-11-20T06:26:13;100415.06;;;0.01;100.00
20696;BME280;10507;52.754;13.040;2022-11-20T06:28:42;100447.31;;;0.12;100.00
20696;BME280;10507;52.754;13.040;2022-11-20T06:31:11;100418.44;;;0.12;100.00
20696;BME280;10507;52.754;13.040;2022-11-20T06:33:39;100389.63;;;0.06;100.00
20696;BME280;10507;52.754;13.040;2022-11-20T06:36:09;100373.88;;;0.04;100.00
20696;BME280;10507;52.754;13.040;2022-11-20T06:38:38;100336.38;;;-0.06;100.00
20696;BME280;10507;52.754;13.040;2022-11-20T06:41:11;100342.53;;;-0.07;100.00
20696;BME280;10507;52.754;13.040;2022-11-20T06:43:39;100389.66;;;0.03;100.00
20696;BME280;10507;52.754;13.040;2022-11-20T06:46:09;100372.22;;;-0.02;100.00
20696;BME280;10507;52.754;13.040;2022-11-20T06:48:37;100363.53;;;-0.07;100.00
20696;BME280;10507;52.754;13.040;2022-11-20T06:51:07;100406.31;;;0.00;100.00
20696;BME280;10507;52.754;13.040;2022-11-20T06:53:36;100417.59;;;0.07;100.00
20696;BME280;10507;52.754;13.040;2022-11-20T06:56:04;100433.28;;;0.14;100.00
20696;BME280;10507;52.754;13.040;2022-11-20T06:58:34;100421.03;;;0.13;100.00
20696;BME280;10507;52.754;13.040;2022-11-20T07:01:04;100454.13;;;0.28;100.00
20696;BME280;10507;52.754;13.040;2022-11-20T07:03:33;100437.41;;;0.35;100.00
20696;BME280;10507;52.754;13.040;2022-11-20T07:06:02;100425.97;;;0.39;100.00
20696;BME280;10507;52.754;13.040;2022-11-20T07:08:30;100382.25;;;0.35;100.00
20696;BME280;10507;52.754;13.040;2022-11-20T07:10:59;100357.81;;;0.30;100.00
20696;BME280;10507;52.754;13.040;2022-11-20T07:13:27;100318.56;;;0.21;100.00
20696;BME280;10507;52.754;13.040;2022-11-20T07:15:59;100365.72;;;0.29;100.00
20696;BME280;10507;52.754;13.040;2022-11-20T07:18:27;100337.72;;;0.29;100.00
20696;BME280;10507;52.754;13.040;2022-11-20T07:20:55;100328.09;;;0.28;100.00
20696;BME280;10507;52.754;13.040;2022-11-20T07:23:23;100350.81;;;0.32;100.00
20696;BME280;10507;52.754;13.040;2022-11-20T07:25:51;100374.25;;;0.45;100.00
20696;BME280;10507;52.754;13.040;2022-11-20T07:28:18;100332.28;;;0.43;100.00
20696;BME280;10507;52.754;13.040;2022-11-20T07:30:49;100327.03;;;0.41;100.00
20696;BME280;10507;52.754;13.040;2022-11-20T07:33:19;100377.66;;;0.54;100.00
20696;BME280;10507;52.754;13.040;2022-11-20T07:35:47;100326.13;;;0.46;100.00
20696;BME280;10507;52.754;13.040;2022-11-20T07:38:15;100348.72;;;0.56;100.00
20696;BME280;10507;52.754;13.040;2022-11-20T07:40:43;100331.22;;;0.55;100.00
20696;BME280;10507;52.754;13.040;2022-11-20T07:43:11;100346.81;;;0.67;100.00
20696;BME280;10507;52.754;13.040;2022-11-20T07:45:39;100325.78;;;0.67;100.00
20696;BME280;10507;52.754;13.040;2022-11-20T07:48:06;100351.00;;;0.80;100.00
20696;BME280;10507;52.754;13.040;2022-11-20T07:50:36;100317.75;;;0.78;100.00
20696;BME280;10507;52.754;13.040;2022-11-20T07:53:04;100324.75;;;0.79;100.00
20696;BME280;10507;52.754;13.040;2022-11-20T07:55:32;100314.09;;;0.88;100.00
20696;BME280;10507;52.754;13.040;2022-11-20T07:58:00;100317.50;;;0.95;100.00
20696;BME280;10507;52.754;13.040;2022-11-20T08:00:28;100313.03;;;1.00;100.00
20696;BME280;10507;52.754;13.040;2022-11-20T08:02:56;100317.28;;;1.09;100.00
20696;BME280;10507;52.754;13.040;2022-11-20T08:05:25;100297.16;;;1.06;100.00
20696;BME280;10507;52.754;13.040;2022-11-20T08:07:54;100272.41;;;1.18;100.00
20696;BME280;10507;52.754;13.040;2022-11-20T08:10:21;100261.91;;;1.16;100.00
20696;BME280;10507;52.754;13.040;2022-11-20T08:12:50;100251.31;;;1.21;100.00
20696;BME280;10507;52.754;13.040;2022-11-20T08:15:37;100198.88;;;1.13;100.00
20696;BME280;10507;52.754;13.040;2022-11-20T08:18:07;100216.44;;;1.11;100.00
20696;BME280;10507;52.754;13.040;2022-11-20T08:20:55;100243.34;;;1.25;100.00
20696;BME280;10507;52.754;13.040;2022-11-20T08:23:24;100211.72;;;1.30;100.00
20696;BME280;10507;52.754;13.040;2022-11-20T08:25:52;100188.09;;;1.29;100.00
20696;BME280;10507;52.754;13.040;2022-11-20T08:28:20;100180.09;;;1.35;100.00
20696;BME280;10507;52.754;13.040;2022-11-20T08:30:48;100172.94;;;1.41;100.00
20696;BME280;10507;52.754;13.040;2022-11-20T08:33:17;100154.47;;;1.43;100.00
20696;BME280;10507;52.754;13.040;2022-11-20T08:35:45;100123.00;;;1.38;100.00
20696;BME280;10507;52.754;13.040;2022-11-20T08:38:13;100042.78;;;1.19;100.00
20696;BME280;10507;52.754;13.040;2022-11-20T08:40:43;100117.97;;;1.28;100.00
20696;BME280;10507;52.754;13.040;2022-11-20T08:43:31;100087.41;;;1.23;100.00
20696;BME280;10507;52.754;13.040;2022-11-20T08:45:59;100089.22;;;1.20;100.00
20696;BME280;10507;52.754;13.040;2022-11-20T08:48:27;100136.16;;;1.38;100.00
20696;BME280;10507;52.754;13.040;2022-11-20T08:50:57;100124.59;;;1.45;100.00
20696;BME280;10507;52.754;13.040;2022-11-20T08:53:26;100070.31;;;1.43;100.00
20696;BME280;10507;52.754;13.040;2022-11-20T08:55:56;100019.78;;;1.29;100.00
20696;BME280;10507;52.754;13.040;2022-11-20T08:58:24;100145.47;;;1.55;100.00
20696;BME280;10507;52.754;13.040;2022-11-20T09:00:52;100143.56;;;1.61;100.00
20696;BME280;10507;52.754;13.040;2022-11-20T09:03:21;100186.06;;;1.83;100.00
20696;BME280;10507;52.754;13.040;2022-11-20T09:05:49;100200.31;;;2.14;100.00
20696;BME280;10507;52.754;13.040;2022-11-20T09:08:17;100213.06;;;2.32;100.00
20696;BME280;10507;52.754;13.040;2022-11-20T09:10:45;100153.09;;;2.43;100.00
20696;BME280;10507;52.754;13.040;2022-11-20T09:13:14;100055.88;;;2.33;100.00
20696;BME280;10507;52.754;13.040;2022-11-20T09:15:42;100049.72;;;2.34;100.00
20696;BME280;10507;52.754;13.040;2022-11-20T09:18:09;100058.97;;;2.48;99.84
20696;BME280;10507;52.754;13.040;2022-11-20T09:20:37;100048.31;;;2.53;99.18
20696;BME280;10507;52.754;13.040;2022-11-20T09:23:05;100041.47;;;2.47;99.45
20696;BME280;10507;52.754;13.040;2022-11-20T09:25:33;100076.03;;;2.68;99.21
20696;BME280;10507;52.754;13.040;2022-11-20T09:28:01;99979.06;;;2.48;99.16
20696;BME280;10507;52.754;13.040;2022-11-20T09:30:30;99984.22;;;2.53;98.85
20696;BME280;10507;52.754;13.040;2022-11-20T09:32:58;99977.38;;;2.47;98.95
20696;BME280;10507;52.754;13.040;2022-11-20T09:35:26;100015.25;;;2.41;99.85
20696;BME280;10507;52.754;13.040;2022-11-20T09:37:54;99861.47;;;2.16;98.47
20696;BME280;10507;52.754;13.040;2022-11-20T09:40:24;99985.59;;;2.35;99.31
20696;BME280;10507;52.754;13.040;2022-11-20T09:42:57;100025.03;;;2.38;99.73
20696;BME280;10507;52.754;13.040;2022-11-20T09:45:38;99920.13;;;2.21;99.02
20696;BME280;10507;52.754;13.040;2022-11-20T09:48:20;100079.16;;;2.49;99.71
20696;BME280;10507;52.754;13.040;2022-11-20T09:50:56;99986.84;;;2.53;99.29
20696;BME280;10507;52.754;13.040;2022-11-20T09:53:32;99965.91;;;2.48;98.96
20696;BME280;10507;52.754;13.040;2022-11-20T09:56:04;99967.78;;;2.44;99.28
20696;BME280;10507;52.754;13.040;2022-11-20T09:58:34;99901.25;;;2.36;99.10
20696;BME280;10507;52.754;13.040;2022-11-20T10:01:10;99968.56;;;2.46;99.00
20696;BME280;10507;52.754;13.040;2022-11-20T10:03:48;99988.66;;;2.50;99.07
20696;BME280;10507;52.754;13.040;2022-11-20T10:06:18;99981.59;;;2.53;99.36
20696;BME280;10507;52.754;13.040;2022-11-20T10:08:55;99983.41;;;2.50;99.74
20696;BME280;10507;52.754;13.040;2022-11-20T10:11:35;99981.72;;;2.48;99.58
20696;BME280;10507;52.754;13.040;2022-11-20T10:14:20;99984.44;;;2.45;99.88
20696;BME280;10507;52.754;13.040;2022-11-20T10:17:00;100016.00;;;2.46;100.00
20696;BME280;10507;52.754;13.040;2022-11-20T10:19:41;99937.16;;;2.40;100.00
20696;BME280;10507;52.754;13.040;2022-11-20T10:22:21;99990.81;;;2.36;100.00
20696;BME280;10507;52.754;13.040;2022-11-20T10:24:56;99900.03;;;2.17;100.00
20696;BME280;10507;52.754;13.040;2022-11-20T10:27:41;99933.78;;;2.02;100.00
20696;BME280;10507;52.754;13.040;2022-11-20T10:30:14;100014.34;;;2.10;100.00
20696;BME280;10507;52.754;13.040;2022-11-20T10:32:46;99948.06;;;1.94;100.00
20696;BME280;10507;52.754;13.040;2022-11-20T10:35:20;100015.66;;;1.92;100.00
20696;BME280;10507;52.754;13.040;2022-11-20T10:37:53;100033.91;;;1.99;100.00
20696;BME280;10507;52.754;13.040;2022-11-20T10:40:28;100020.81;;;1.96;100.00
20696;BME280;10507;52.754;13.040;2022-11-20T10:43:01;99955.59;;;1.73;100.00
20696;BME280;10507;52.754;13.040;2022-11-20T10:45:36;100006.69;;;1.64;100.00
20696;BME280;10507;52.754;13.040;2022-11-20T10:48:15;100036.47;;;1.66;100.00
20696;BME280;10507;52.754;13.040;2022-11-20T10:53:45;100767.16;;;10.23;100.00
20696;BME280;10507;52.754;13.040;2022-11-20T10:56:20;99953.88;;;6.35;100.00
20696;BME280;10507;52.754;13.040;2022-11-20T10:59:00;99669.13;;;4.40;100.00
20696;BME280;10507;52.754;13.040;2022-11-20T11:01:29;99608.13;;;3.57;99.96
20696;BME280;10507;52.754;13.040;2022-11-20T11:03:59;99518.06;;;2.97;99.79
20696;BME280;10507;52.754;13.040;2022-11-20T11:06:32;99525.94;;;2.73;99.86
20696;BME280;10507;52.754;13.040;2022-11-20T11:09:10;99543.53;;;2.47;100.00
20696;BME280;10507;52.754;13.040;2022-11-20T11:11:40;99555.25;;;2.39;100.00
20696;BME280;10507;52.754;13.040;2022-11-20T11:14:11;99547.84;;;2.23;100.00
20696;BME280;10507;52.754;13.040;2022-11-20T11:16:49;99654.00;;;2.25;100.00
20696;BME280;10507;52.754;13.040;2022-11-20T11:19:18;99704.56;;;2.37;100.00
20696;BME280;10507;52.754;13.040;2022-11-20T11:21:47;99692.50;;;2.29;100.00
20696;BME280;10507;52.754;13.040;2022-11-20T11:24:22;99731.63;;;2.42;100.00
20696;BME280;10507;52.754;13.040;2022-11-20T11:27:12;99710.69;;;2.37;100.00
20696;BME280;10507;52.754;13.040;2022-11-20T11:29:43;99818.16;;;2.56;100.00
20696;BME280;10507;52.754;13.040;2022-11-20T11:32:17;99746.53;;;2.43;100.00
20696;BME280;10507;52.754;13.040;2022-11-20T11:34:58;99708.06;;;2.37;100.00
20696;BME280;10507;52.754;13.040;2022-11-20T11:37:28;99733.53;;;2.37;100.00
20696;BME280;10507;52.754;13.040;2022-11-20T11:40:00;99750.41;;;2.31;100.00
20696;BME280;10507;52.754;13.040;2022-11-20T11:42:54;99795.50;;;2.48;100.00
20696;BME280;10507;52.754;13.040;2022-11-20T11:45:22;99877.44;;;2.69;100.00
20696;BME280;10507;52.754;13.040;2022-11-20T11:47:51;99774.94;;;2.61;100.00
20696;BME280;10507;52.754;13.040;2022-11-20T11:50:23;99727.75;;;2.54;100.00
20696;BME280;10507;52.754;13.040;2022-11-20T11:53:01;99745.22;;;2.56;100.00
20696;BME280;10507;52.754;13.040;2022-11-20T11:55:35;99706.31;;;2.38;100.00
20696;BME280;10507;52.754;13.040;2022-11-20T11:58:14;99730.91;;;2.37;100.00
20696;BME280;10507;52.754;13.040;2022-11-20T12:00:51;99655.13;;;2.18;100.00
20696;BME280;10507;52.754;13.040;2022-11-20T12:03:25;99724.41;;;2.20;100.00
20696;BME280;10507;52.754;13.040;2022-11-20T12:05:58;99729.03;;;2.12;100.00
20696;BME280;10507;52.754;13.040;2022-11-20T12:08:31;99817.94;;;2.34;100.00
20696;BME280;10507;52.754;13.040;2022-11-20T12:11:04;99798.59;;;2.33;100.00
20696;BME280;10507;52.754;13.040;2022-11-20T12:13:46;99718.31;;;2.18;100.00
20696;BME280;10507;52.754;13.040;2022-11-20T12:16:18;99712.09;;;2.21;100.00
20696;BME280;10507;52.754;13.040;2022-11-20T12:18:49;99776.81;;;2.28;100.00
20696;BME280;10507;52.754;13.040;2022-11-20T12:21:20;99746.88;;;2.31;100.00
20696;BME280;10507;52.754;13.040;2022-11-20T12:24:08;99663.97;;;2.16;100.00
20696;BME280;10507;52.754;13.040;2022-11-20T12:26:51;99709.34;;;2.24;100.00
20696;BME280;10507;52.754;13.040;2022-11-20T12:29:36;99686.88;;;2.14;100.00
20696;BME280;10507;52.754;13.040;2022-11-20T12:32:47;99690.53;;;2.08;100.00
20696;BME280;10507;52.754;13.040;2022-11-20T12:35:34;99725.41;;;2.16;100.00
20696;BME280;10507;52.754;13.040;2022-11-20T12:38:26;99781.28;;;2.26;100.00
20696;BME280;10507;52.754;13.040;2022-11-20T12:41:05;99751.31;;;2.30;100.00
20696;BME280;10507;52.754;13.040;2022-11-20T12:43:40;99779.81;;;2.45;100.00
20696;BME280;10507;52.754;13.040;2022-11-20T12:46:34;99771.06;;;2.45;100.00
20696;BME280;10507;52.754;13.040;2022-11-20T12:49:26;99792.56;;;2.59;100.00
20696;BME280;10507;52.754;13.040;2022-11-20T12:52:19;99860.22;;;2.87;100.00
20696;BME280;10507;52.754;13.040;2022-11-20T12:55:09;99811.81;;;2.89;100.00
20696;BME280;10507;52.754;13.040;2022-11-20T12:57:46;99791.75;;;2.85;100.00
20696;BME280;10507;52.754;13.040;2022-11-20T13:00:18;99773.09;;;2.91;100.00
20696;BME280;10507;52.754;13.040;2022-11-20T13:06:08;99666.69;;;2.67;99.68
20696;BME280;10507;52.754;13.040;2022-11-20T13:08:40;99663.94;;;2.70;98.97